KGBD

Great Bend Municipal Airport

Great Bend, Kansas, USA
METAR KGBD 220856Z AUTO 17009KT 10SM CLR 18/16 A2998 RMK AO2 SLP136 T01780156 53003
Observed Flight Rules
May-22 @ 08:56 UTC (an hour ago) Visual Flight Rules
Wind Visibility Clouds
170° at 9 knots 10 miles
  • Clear skies
Temperatures Readings
Current 18°C / 64°F
Dewpoint 16°C / 61°F
Humidity 88%
Altimeter 29.98" Hg
Pressure 1013.6 hPa
Elevation 575
METAR KGBD 220856Z AUTO 17009KT 10SM CLR 18/16 A2998 RMK AO2 SLP136 T01780156 53003
Observed Flight Rules
May-22 @ 08:56 UTC
(an hour ago)
VFR
Wind Visibility
170° at 9 knots 10 miles
Clouds
  • Clear skies
Temperature Dewpoint
18°C / 64°F 16°C / 61°F
Humidity Altimeter Pressure
88% 29.98" Hg 1013.6 hPa